createdAt,value
2017-08-15T00:02:23.552Z,2.20
2017-08-15T00:04:51.651Z,2.65
2017-08-15T00:07:20.495Z,2.40
2017-08-15T00:09:48.598Z,2.40
2017-08-15T00:12:16.683Z,2.15
2017-08-15T00:14:44.756Z,1.90
2017-08-15T00:17:13.615Z,2.40
2017-08-15T00:19:41.700Z,2.62
2017-08-15T00:22:09.872Z,2.15
2017-08-15T00:24:37.959Z,2.65
2017-08-15T00:27:06.082Z,2.53
2017-08-15T00:29:34.164Z,2.10
2017-08-15T00:32:02.244Z,2.30
2017-08-15T00:34:30.343Z,2.90
2017-08-15T00:36:58.815Z,1.95
2017-08-15T00:39:26.941Z,2.15
2017-08-15T00:41:55.020Z,2.40
2017-08-15T00:44:23.095Z,2.35
2017-08-15T00:46:51.182Z,1.83
2017-08-15T00:49:19.285Z,2.60
2017-08-15T00:51:47.354Z,2.37
2017-08-15T00:54:15.845Z,2.17
2017-08-15T00:56:44.683Z,2.80
2017-08-15T00:59:12.795Z,2.40
2017-08-15T01:01:40.880Z,2.25
2017-08-15T01:04:09.731Z,1.60
2017-08-15T01:06:37.842Z,2.35
2017-08-15T01:09:06.689Z,2.65
2017-08-15T01:11:34.763Z,2.40
2017-08-15T01:14:02.876Z,2.00
2017-08-15T01:16:30.959Z,2.28
2017-08-15T01:18:59.804Z,2.85
2017-08-15T01:21:27.891Z,2.50
2017-08-15T01:23:55.983Z,2.45
2017-08-15T01:26:24.445Z,2.40
2017-08-15T01:28:52.541Z,2.28
2017-08-15T01:31:21.373Z,2.25
2017-08-15T01:33:49.471Z,2.53
2017-08-15T01:36:17.543Z,2.58
2017-08-15T01:38:46.645Z,2.22
2017-08-15T01:41:14.737Z,2.22
2017-08-15T01:43:44.178Z,2.17
2017-08-15T01:46:12.269Z,2.40
2017-08-15T01:48:40.342Z,2.72
2017-08-15T01:51:08.424Z,1.87
2017-08-15T01:53:37.258Z,2.28
2017-08-15T01:56:05.753Z,2.42
2017-08-15T01:58:34.218Z,2.55
2017-08-15T02:01:03.062Z,2.25
2017-08-15T02:03:31.157Z,2.37
2017-08-15T02:05:59.230Z,2.70
2017-08-15T02:08:27.301Z,2.20
2017-08-15T02:10:55.391Z,2.17
2017-08-15T02:13:23.924Z,2.45
2017-08-15T02:15:51.982Z,2.53
2017-08-15T02:18:20.814Z,2.00
2017-08-15T02:20:48.895Z,2.40
2017-08-15T02:23:18.493Z,2.40
2017-08-15T02:25:46.561Z,1.62
2017-08-15T02:28:14.629Z,2.45
2017-08-15T02:30:42.729Z,2.42
2017-08-15T02:33:11.569Z,2.47
2017-08-15T02:35:39.653Z,2.08
2017-08-15T02:38:07.762Z,2.90
2017-08-15T02:40:36.607Z,2.60
2017-08-15T02:43:04.674Z,3.08
2017-08-15T02:45:32.770Z,2.60
2017-08-15T02:48:00.840Z,2.22
2017-08-15T02:50:28.918Z,3.10
2017-08-15T02:52:57.014Z,3.28
2017-08-15T02:55:25.854Z,2.83
2017-08-15T02:57:54.337Z,2.72
2017-08-15T03:00:22.406Z,2.40
2017-08-15T03:02:50.506Z,2.60
2017-08-15T03:05:18.575Z,2.20
2017-08-15T03:07:46.676Z,2.00
2017-08-15T03:10:15.514Z,2.25
2017-08-15T03:12:44.355Z,2.40
2017-08-15T03:15:13.213Z,3.20
2017-08-15T03:17:41.305Z,2.80
2017-08-15T03:20:09.376Z,2.33
2017-08-15T03:22:37.478Z,2.40
2017-08-15T03:25:05.550Z,2.40
2017-08-15T03:27:33.622Z,2.15
2017-08-15T03:30:01.715Z,2.60
2017-08-15T03:32:29.805Z,2.47
2017-08-15T03:34:57.895Z,2.22
2017-08-15T03:37:25.961Z,2.70
2017-08-15T03:39:54.053Z,2.40
2017-08-15T03:42:22.126Z,2.58
2017-08-15T03:44:50.217Z,2.12
2017-08-15T03:47:19.096Z,2.92
2017-08-15T03:49:47.930Z,2.60
2017-08-15T03:52:16.397Z,2.70
2017-08-15T03:54:44.509Z,2.47
2017-08-15T03:57:12.582Z,2.20
2017-08-15T03:59:40.654Z,2.47
2017-08-15T04:02:09.142Z,2.28
2017-08-15T04:04:37.633Z,2.67
2017-08-15T04:07:05.705Z,2.78
2017-08-15T04:09:34.169Z,2.55
2017-08-15T04:12:02.265Z,2.50
2017-08-15T04:14:30.332Z,2.87
2017-08-15T04:16:58.802Z,2.62
2017-08-15T04:19:26.911Z,2.60
2017-08-15T04:21:55.742Z,2.58
2017-08-15T04:24:23.809Z,2.80
2017-08-15T04:26:51.991Z,2.37
2017-08-15T04:29:20.789Z,2.62
2017-08-15T04:31:48.857Z,2.30
2017-08-15T04:34:16.965Z,2.20
2017-08-15T04:36:45.034Z,3.12
2017-08-15T04:39:13.874Z,3.00
2017-08-15T04:41:42.729Z,2.70
2017-08-15T04:44:11.565Z,2.65
2017-08-15T04:46:39.664Z,3.00
2017-08-15T04:49:07.734Z,2.78
2017-08-15T04:51:35.810Z,2.70
2017-08-15T04:54:03.897Z,2.50
2017-08-15T04:56:32.758Z,3.00
2017-08-15T04:59:00.826Z,3.30
2017-08-15T05:01:28.921Z,2.95
2017-08-15T05:03:57.029Z,3.00
2017-08-15T05:06:25.493Z,3.47
2017-08-15T05:08:54.330Z,3.20
2017-08-15T05:11:22.809Z,3.00
2017-08-15T05:13:50.883Z,2.80
2017-08-15T05:16:18.985Z,3.35
2017-08-15T05:18:47.825Z,2.62
2017-08-15T05:21:15.894Z,2.85
2017-08-15T05:23:44.096Z,3.42
2017-08-15T05:26:12.141Z,2.72
2017-08-15T05:28:40.998Z,2.85
2017-08-15T05:31:09.485Z,3.40
2017-08-15T05:33:37.945Z,3.83
2017-08-15T05:36:06.043Z,3.97
2017-08-15T05:38:34.501Z,3.15
2017-08-15T05:41:02.605Z,3.65
2017-08-15T05:43:31.536Z,2.80
2017-08-15T05:46:00.327Z,3.42
2017-08-15T05:48:28.435Z,3.30
2017-08-15T05:50:56.506Z,4.15
2017-08-15T05:53:24.574Z,4.62
2017-08-15T05:55:52.661Z,3.97
2017-08-15T05:58:21.526Z,3.90
2017-08-15T06:00:49.597Z,3.37
2017-08-15T06:03:17.669Z,3.65
2017-08-15T06:05:47.261Z,4.15
2017-08-15T06:08:15.725Z,4.07
2017-08-15T06:10:43.829Z,4.10
2017-08-15T06:13:12.298Z,3.92
2017-08-15T06:15:40.365Z,4.60
2017-08-15T06:18:08.470Z,3.92
2017-08-15T06:20:36.542Z,4.68
2017-08-15T06:23:04.605Z,3.75
2017-08-15T06:25:32.699Z,4.03
2017-08-15T06:28:01.530Z,4.10
2017-08-15T06:30:29.642Z,4.12
2017-08-15T06:32:57.726Z,4.45
2017-08-15T06:35:26.562Z,4.30
2017-08-15T06:37:54.656Z,4.75
2017-08-15T06:40:22.726Z,4.43
2017-08-15T06:42:50.817Z,4.32
2017-08-15T06:45:18.917Z,3.42
2017-08-15T06:47:47.745Z,4.55
2017-08-15T06:50:15.842Z,3.92
2017-08-15T06:52:43.930Z,4.18
2017-08-15T06:55:11.997Z,4.20
2017-08-15T06:57:40.089Z,4.60
2017-08-15T07:00:08.189Z,3.85
2017-08-15T07:02:36.265Z,4.60
2017-08-15T07:05:04.358Z,4.45
2017-08-15T07:07:32.426Z,4.05
2017-08-15T07:10:00.514Z,3.87
2017-08-15T07:12:28.609Z,4.90
2017-08-15T07:14:56.702Z,4.47
2017-08-15T07:17:25.534Z,3.97
2017-08-15T07:19:53.627Z,4.60
2017-08-15T07:22:21.697Z,3.85
2017-08-15T07:24:49.809Z,3.95
2017-08-15T07:27:18.641Z,4.93
2017-08-15T07:29:46.715Z,4.85
2017-08-15T07:32:14.805Z,4.82
2017-08-15T07:34:42.877Z,4.95
2017-08-15T07:37:10.988Z,5.00
2017-08-15T07:39:39.837Z,4.97
2017-08-15T07:42:07.902Z,6.15
2017-08-15T07:44:35.994Z,5.20
2017-08-15T07:47:04.065Z,5.43
2017-08-15T07:49:32.154Z,5.60
2017-08-15T07:52:01.053Z,5.50
2017-08-15T07:54:29.891Z,4.80
2017-08-15T07:56:57.962Z,5.22
2017-08-15T07:59:26.049Z,5.15
2017-08-15T08:01:54.125Z,5.12
2017-08-15T08:04:22.213Z,4.97
2017-08-15T08:06:50.280Z,5.22
2017-08-15T08:09:18.386Z,5.25
2017-08-15T08:11:46.461Z,5.35
2017-08-15T08:14:14.925Z,5.87
2017-08-15T08:16:43.787Z,6.25
2017-08-15T08:19:12.277Z,5.78
2017-08-15T08:21:40.349Z,6.25
2017-08-15T08:24:08.429Z,6.03
2017-08-15T08:26:36.911Z,6.12
2017-08-15T08:29:04.977Z,7.62
2017-08-15T08:31:33.070Z,6.32
2017-08-15T08:34:01.909Z,5.78
2017-08-15T08:36:29.994Z,6.35
2017-08-15T08:38:58.087Z,6.35
2017-08-15T08:41:26.182Z,6.40
2017-08-15T08:43:55.038Z,5.72
2017-08-15T08:46:23.105Z,7.53
2017-08-15T08:48:51.978Z,6.60
2017-08-15T08:51:20.047Z,6.35
2017-08-15T08:53:48.122Z,6.80
2017-08-15T08:56:16.206Z,5.90
2017-08-15T08:58:44.325Z,5.25
2017-08-15T09:01:13.159Z,5.10
2017-08-15T09:03:41.231Z,5.25
2017-08-15T09:06:09.325Z,5.43
2017-08-15T09:08:37.889Z,4.68
2017-08-15T09:11:05.938Z,6.00
2017-08-15T09:13:34.429Z,5.53
2017-08-15T09:16:02.522Z,5.95
2017-08-15T09:18:30.585Z,5.32
2017-08-15T09:20:58.686Z,5.22
2017-08-15T09:23:26.766Z,4.75
2017-08-15T09:25:54.833Z,5.15
2017-08-15T09:28:22.931Z,4.15
2017-08-15T09:30:51.863Z,4.53
2017-08-15T09:33:20.678Z,5.22
2017-08-15T09:35:48.770Z,7.05
2017-08-15T09:38:17.612Z,4.40
2017-08-15T09:40:45.689Z,4.68
2017-08-15T09:43:13.757Z,6.25
2017-08-15T09:45:41.855Z,4.72
2017-08-15T09:48:09.917Z,4.85
2017-08-15T09:50:38.018Z,4.43
2017-08-15T09:53:06.896Z,5.75
2017-08-15T09:55:34.961Z,4.75
2017-08-15T09:58:08.818Z,4.93
2017-08-15T10:00:36.897Z,5.40
2017-08-15T10:03:05.006Z,4.87
2017-08-15T10:05:33.078Z,3.50
2017-08-15T10:08:01.150Z,4.18
2017-08-15T10:10:29.242Z,4.70
2017-08-15T10:12:57.318Z,4.35
2017-08-15T10:15:26.174Z,3.72
2017-08-15T10:17:54.305Z,4.28
2017-08-15T10:20:22.377Z,3.35
2017-08-15T10:22:50.489Z,3.50
2017-08-15T10:25:18.565Z,3.42
2017-08-15T10:27:46.656Z,3.50
2017-08-15T10:30:14.714Z,3.40
2017-08-15T10:32:42.809Z,3.15
2017-08-15T10:35:10.882Z,3.50
2017-08-15T10:37:38.954Z,3.30
2017-08-15T10:40:07.049Z,3.50
2017-08-15T10:42:35.113Z,3.42
2017-08-15T10:45:03.970Z,3.78
2017-08-15T10:47:32.041Z,3.87
2017-08-15T10:50:00.137Z,3.40
2017-08-15T10:52:28.210Z,3.53
2017-08-15T10:54:57.042Z,3.20
2017-08-15T10:57:25.142Z,3.25
2017-08-15T10:59:53.213Z,4.18
2017-08-15T11:02:21.302Z,4.68
2017-08-15T11:04:49.373Z,4.22
2017-08-15T11:07:17.479Z,4.70
2017-08-15T11:09:46.310Z,4.22
2017-08-15T11:12:14.586Z,4.70
2017-08-15T11:14:42.686Z,4.72
2017-08-15T11:17:10.757Z,4.55
2017-08-15T11:19:38.851Z,4.75
2017-08-15T11:22:06.923Z,3.78
2017-08-15T11:24:35.775Z,3.20
2017-08-15T11:27:03.846Z,4.97
2017-08-15T11:29:31.950Z,3.55
2017-08-15T11:32:00.789Z,3.37
2017-08-15T11:34:28.853Z,3.53
2017-08-15T11:36:56.942Z,4.03
2017-08-15T11:39:25.042Z,4.40
2017-08-15T11:41:53.114Z,4.00
2017-08-15T11:44:21.190Z,4.20
2017-08-15T11:46:49.298Z,4.70
2017-08-15T11:49:17.366Z,4.75
2017-08-15T11:51:45.434Z,4.30
2017-08-15T11:54:13.533Z,4.45
2017-08-15T11:56:41.607Z,3.90
2017-08-15T11:59:09.682Z,4.32
2017-08-15T12:01:37.802Z,4.20
2017-08-15T12:04:05.891Z,4.18
2017-08-15T12:06:34.016Z,3.47
2017-08-15T12:09:02.081Z,4.43
2017-08-15T12:11:30.170Z,4.28
2017-08-15T12:13:58.246Z,4.90
2017-08-15T12:16:26.730Z,3.92
2017-08-15T12:18:54.798Z,4.25
2017-08-15T12:21:22.914Z,10.73
2017-08-15T12:23:50.981Z,5.40
2017-08-15T12:26:19.445Z,5.07
2017-08-15T12:28:47.543Z,5.22
2017-08-15T12:31:15.649Z,5.07
2017-08-15T12:33:43.683Z,4.70
2017-08-15T12:36:11.794Z,4.78
2017-08-15T12:38:39.870Z,4.00
2017-08-15T12:41:07.925Z,4.25
2017-08-15T12:43:36.830Z,5.20
2017-08-15T12:46:05.648Z,6.20
2017-08-15T12:48:34.508Z,6.70
2017-08-15T12:51:02.578Z,8.07
2017-08-15T12:53:30.755Z,6.05
2017-08-15T12:55:59.570Z,4.85
2017-08-15T12:58:27.657Z,4.50
2017-08-15T13:00:56.523Z,5.90
2017-08-15T13:03:24.606Z,4.32
2017-08-15T13:05:52.703Z,4.35
2017-08-15T13:08:22.577Z,4.65
2017-08-15T13:10:51.456Z,5.20
2017-08-15T13:13:20.269Z,4.45
2017-08-15T13:15:48.753Z,5.37
2017-08-15T13:18:16.865Z,5.45
2017-08-15T13:20:44.934Z,5.78
2017-08-15T13:23:13.009Z,5.28
2017-08-15T13:25:41.097Z,6.25
2017-08-15T13:28:09.188Z,4.97
2017-08-15T13:30:37.286Z,6.32
2017-08-15T13:33:05.754Z,6.00
2017-08-15T13:35:33.857Z,7.55
2017-08-15T13:38:02.697Z,6.60
2017-08-15T13:40:31.162Z,5.30
2017-08-15T13:43:00.025Z,6.40
2017-08-15T13:45:28.857Z,5.55
2017-08-15T13:47:56.925Z,5.15
2017-08-15T13:50:25.019Z,6.72
2017-08-15T13:52:53.118Z,6.20
2017-08-15T13:55:21.188Z,7.25
2017-08-15T13:57:49.263Z,7.90
2017-08-15T14:00:17.361Z,7.55
2017-08-15T14:02:45.433Z,8.20
2017-08-15T14:05:13.509Z,7.65
2017-08-15T14:07:41.617Z,7.03
2017-08-15T14:10:09.689Z,6.90
2017-08-15T14:12:37.761Z,7.12
2017-08-15T14:15:05.861Z,7.18
2017-08-15T14:17:33.950Z,7.12
2017-08-15T14:20:02.809Z,7.95
2017-08-15T14:22:31.650Z,8.52
2017-08-15T14:24:59.755Z,7.60
2017-08-15T14:27:27.930Z,6.80
2017-08-15T14:29:56.718Z,7.03
2017-08-15T14:32:24.813Z,7.35
2017-08-15T14:34:52.901Z,6.57
2017-08-15T14:37:21.746Z,7.25
2017-08-15T14:39:49.830Z,7.45
2017-08-15T14:42:18.298Z,7.50
2017-08-15T14:44:46.402Z,7.07
2017-08-15T14:47:14.469Z,7.78
2017-08-15T14:49:42.546Z,6.62
2017-08-15T14:52:10.637Z,7.30
2017-08-15T14:54:38.710Z,7.70
2017-08-15T14:57:07.198Z,8.50
2017-08-15T14:59:36.034Z,6.90
2017-08-15T15:02:04.519Z,7.45
2017-08-15T15:04:32.608Z,7.28
2017-08-15T15:07:01.446Z,6.62
2017-08-15T15:09:29.542Z,6.93
2017-08-15T15:11:57.610Z,5.55
2017-08-15T15:14:25.713Z,5.53
2017-08-15T15:16:53.785Z,5.20
2017-08-15T15:19:21.850Z,5.47
2017-08-15T15:21:49.943Z,5.53
2017-08-15T15:24:18.018Z,5.32
2017-08-15T15:26:46.109Z,5.20
2017-08-15T15:29:14.946Z,5.22
2017-08-15T15:31:43.050Z,5.10
2017-08-15T15:34:11.122Z,4.65
2017-08-15T15:36:39.189Z,5.25
2017-08-15T15:39:07.278Z,4.85
2017-08-15T15:41:36.122Z,5.35
2017-08-15T15:44:04.630Z,4.37
2017-08-15T15:46:33.461Z,4.40
2017-08-15T15:49:01.534Z,4.62
2017-08-15T15:51:29.625Z,4.30
2017-08-15T15:53:58.461Z,4.15
2017-08-15T15:56:26.566Z,3.50
2017-08-15T15:58:54.637Z,3.65
2017-08-15T16:01:22.705Z,4.25
2017-08-15T16:03:51.561Z,4.20
2017-08-15T16:06:19.654Z,4.43
2017-08-15T16:08:48.514Z,4.40
2017-08-15T16:11:16.587Z,5.07
2017-08-15T16:13:45.465Z,4.47
2017-08-15T16:16:13.538Z,5.37
2017-08-15T16:18:41.606Z,4.68
2017-08-15T16:21:09.694Z,5.68
2017-08-15T16:23:39.306Z,6.30
2017-08-15T16:26:07.464Z,5.37
2017-08-15T16:28:35.944Z,6.18
2017-08-15T16:31:04.834Z,6.45
2017-08-15T16:33:33.727Z,6.78
2017-08-15T16:36:01.758Z,6.28
2017-08-15T16:38:29.829Z,7.43
2017-08-15T16:40:57.922Z,6.15
2017-08-15T16:43:25.998Z,6.43
2017-08-15T16:45:54.087Z,5.45
2017-08-15T16:48:22.158Z,5.47
2017-08-15T16:50:51.018Z,5.85
2017-08-15T16:53:19.091Z,6.18
2017-08-15T16:55:47.196Z,7.65
2017-08-15T16:58:15.662Z,6.18
2017-08-15T17:00:43.726Z,5.30
2017-08-15T17:03:11.830Z,4.90
2017-08-15T17:05:39.908Z,6.10
2017-08-15T17:08:07.973Z,6.03
2017-08-15T17:10:36.061Z,5.70
2017-08-15T17:13:04.140Z,6.45
2017-08-15T17:15:32.229Z,5.60
2017-08-15T17:18:01.253Z,5.32
2017-08-15T17:20:29.386Z,4.95
2017-08-15T17:22:57.510Z,5.07
2017-08-15T17:25:25.590Z,5.10
2017-08-15T17:27:53.658Z,5.80
2017-08-15T17:30:21.754Z,9.07
2017-08-15T17:32:49.873Z,6.78
2017-08-15T17:35:18.373Z,9.85
2017-08-15T17:37:46.458Z,15.68
2017-08-15T17:40:14.541Z,20.20
2017-08-15T17:42:42.653Z,10.07
2017-08-15T17:45:11.130Z,18.95
2017-08-15T17:47:39.970Z,6.22
2017-08-15T17:50:08.074Z,5.93
2017-08-15T17:52:36.168Z,5.97
2017-08-15T17:55:05.002Z,6.80
2017-08-15T17:57:33.114Z,7.25
2017-08-15T18:00:01.186Z,5.68
2017-08-15T18:02:29.655Z,9.65
2017-08-15T18:04:57.758Z,8.57
2017-08-15T18:07:26.602Z,9.25
2017-08-15T18:09:54.713Z,9.32
2017-08-15T18:12:23.550Z,7.57
2017-08-15T18:14:52.385Z,8.52
2017-08-15T18:17:20.877Z,7.70
2017-08-15T18:19:49.718Z,8.85
2017-08-15T18:22:17.813Z,7.32
2017-08-15T18:24:45.882Z,5.65
2017-08-15T18:27:13.958Z,5.55
2017-08-15T18:29:42.118Z,6.30
2017-08-15T18:32:10.622Z,5.25
2017-08-15T18:34:38.697Z,6.35
2017-08-15T18:37:06.771Z,6.10
2017-08-15T18:39:35.632Z,6.45
2017-08-15T18:42:03.703Z,5.40
2017-08-15T18:44:31.798Z,5.35
2017-08-15T18:46:59.865Z,6.55
2017-08-15T18:49:27.957Z,5.45
2017-08-15T18:51:56.810Z,6.07
2017-08-15T18:54:24.881Z,6.10
2017-08-15T18:56:52.981Z,6.00
2017-08-15T18:59:21.068Z,5.72
2017-08-15T19:01:49.133Z,5.78
2017-08-15T19:04:17.994Z,5.35
2017-08-15T19:06:46.099Z,6.12
2017-08-15T19:09:14.562Z,5.30
2017-08-15T19:11:43.398Z,6.40
2017-08-15T19:14:11.886Z,5.45
2017-08-15T19:16:39.959Z,6.57
2017-08-15T19:19:08.045Z,6.82
2017-08-15T19:21:36.125Z,7.10
2017-08-15T19:24:04.610Z,6.75
2017-08-15T19:26:32.683Z,6.97
2017-08-15T19:29:00.813Z,7.03
2017-08-15T19:31:29.650Z,6.55
2017-08-15T19:33:58.494Z,6.62
2017-08-15T19:36:26.590Z,7.28
2017-08-15T19:38:54.663Z,5.87
2017-08-15T19:41:22.733Z,5.80
2017-08-15T19:43:50.826Z,5.70
2017-08-15T19:46:19.294Z,6.50
2017-08-15T19:48:47.386Z,6.20
2017-08-15T19:51:15.855Z,6.35
2017-08-15T19:53:43.947Z,5.85
2017-08-15T19:56:12.014Z,7.25
2017-08-15T19:58:40.162Z,6.90
2017-08-15T20:01:08.238Z,7.72
2017-08-15T20:03:36.322Z,6.95
2017-08-15T20:06:04.406Z,7.30
2017-08-15T20:08:32.569Z,7.32
2017-08-15T20:11:01.366Z,7.70
2017-08-15T20:13:29.463Z,6.40
2017-08-15T20:15:57.535Z,7.12
2017-08-15T20:18:25.605Z,5.70
2017-08-15T20:20:53.707Z,7.60
2017-08-15T20:23:21.770Z,7.30
2017-08-15T20:25:50.629Z,7.72
2017-08-15T20:28:18.698Z,7.55
2017-08-15T20:30:46.794Z,7.60
2017-08-15T20:33:14.871Z,8.15
2017-08-15T20:35:43.721Z,6.40
2017-08-15T20:38:11.828Z,9.30
2017-08-15T20:40:39.903Z,8.07
2017-08-15T20:43:07.979Z,7.22
2017-08-15T20:45:36.829Z,8.48
2017-08-15T20:48:04.906Z,7.28
2017-08-15T20:50:32.993Z,8.10
2017-08-15T20:53:01.086Z,7.55
2017-08-15T20:55:29.945Z,9.13
2017-08-15T20:57:58.013Z,7.43
2017-08-15T21:00:26.102Z,7.68
2017-08-15T21:02:54.194Z,7.55
2017-08-15T21:05:23.029Z,7.93
2017-08-15T21:07:51.907Z,7.60
2017-08-15T21:10:20.757Z,6.90
2017-08-15T21:12:49.596Z,8.38
2017-08-15T21:15:17.690Z,8.00
2017-08-15T21:17:45.798Z,8.40
2017-08-15T21:20:14.639Z,8.45
2017-08-15T21:22:42.714Z,10.48
2017-08-15T21:25:10.822Z,9.35
2017-08-15T21:27:38.902Z,9.57
2017-08-15T21:30:07.366Z,9.88
2017-08-15T21:32:35.481Z,10.75
2017-08-15T21:35:03.566Z,10.48
2017-08-15T21:37:31.641Z,11.23
2017-08-15T21:39:59.742Z,13.13
2017-08-15T21:42:27.853Z,12.85
2017-08-15T21:44:56.713Z,12.27
2017-08-15T21:47:24.794Z,13.48
2017-08-15T21:49:52.909Z,13.52
2017-08-15T21:52:20.989Z,13.40
2017-08-15T21:54:49.093Z,13.27
2017-08-15T21:57:17.194Z,13.85
2017-08-15T21:59:46.042Z,13.55
2017-08-15T22:02:19.963Z,14.18
2017-08-15T22:04:48.042Z,13.40
2017-08-15T22:07:16.149Z,12.95
2017-08-15T22:09:44.234Z,14.02
2017-08-15T22:12:12.317Z,12.68
2017-08-15T22:14:40.574Z,12.80
2017-08-15T22:17:08.625Z,13.45
2017-08-15T22:19:37.477Z,14.32
2017-08-15T22:22:05.970Z,13.20
2017-08-15T22:24:34.049Z,13.10
2017-08-15T22:27:02.162Z,12.35
2017-08-15T22:29:30.638Z,11.90
2017-08-15T22:31:59.168Z,12.65
2017-08-15T22:34:27.233Z,11.98
2017-08-15T22:36:55.314Z,14.30
2017-08-15T22:39:23.794Z,13.70
2017-08-15T22:41:52.183Z,11.70
2017-08-15T22:44:20.673Z,13.40
2017-08-15T22:46:48.746Z,13.00
2017-08-15T22:49:16.855Z,12.65
2017-08-15T22:51:45.726Z,13.38
2017-08-15T22:54:14.683Z,12.50
2017-08-15T22:56:42.779Z,10.57
2017-08-15T22:59:11.398Z,11.38
2017-08-15T23:01:39.491Z,14.00
2017-08-15T23:04:07.600Z,13.82
2017-08-15T23:06:35.674Z,12.80
2017-08-15T23:09:03.786Z,13.55
2017-08-15T23:11:32.264Z,12.80
2017-08-15T23:14:01.204Z,12.68
2017-08-15T23:16:29.642Z,13.62
2017-08-15T23:18:57.746Z,13.55
2017-08-15T23:21:25.902Z,13.50
2017-08-15T23:23:54.750Z,13.65
2017-08-15T23:26:22.844Z,13.15
2017-08-15T23:28:51.715Z,14.20
2017-08-15T23:31:19.798Z,13.90
2017-08-15T23:33:48.337Z,13.68
2017-08-15T23:36:16.807Z,13.18
2017-08-15T23:38:44.959Z,13.55
2017-08-15T23:41:13.038Z,12.73
2017-08-15T23:43:41.137Z,11.75
2017-08-15T23:46:09.274Z,11.23
2017-08-15T23:48:37.792Z,10.80
2017-08-15T23:51:05.844Z,10.57
2017-08-15T23:53:34.040Z,12.00
2017-08-15T23:56:02.479Z,10.30
2017-08-15T23:58:30.582Z,11.12
